Time,TemperatureF,DewpointF,PressureIn,WindDirection,WindDirectionDegrees,WindSpeedMPH,WindSpeedGustMPH,Humidity,HourlyPrecipIn,Conditions,Clouds,dailyrainin,SoftwareType,DateUTC
2013-08-30 00:00:00,71.0,68.9,29.95,ESE,112,0.0,0.0,93,0.00,,---,0.00,VWS V14.01,2013-08-30 04:00:00,
2013-08-30 00:30:00,70.2,68.4,29.95,ESE,112,0.0,0.0,94,0.00,,---,0.00,VWS V14.01,2013-08-30 04:30:00,
2013-08-30 01:00:00,69.9,68.1,29.96,ESE,112,0.0,0.0,94,0.00,,---,0.00,VWS V14.01,2013-08-30 05:00:00,
2013-08-30 01:30:00,69.2,67.7,29.96,ESE,111,0.0,0.0,95,0.00,,---,0.00,VWS V14.01,2013-08-30 05:30:00,
2013-08-30 02:00:00,68.9,67.4,29.96,ESE,111,0.0,0.0,95,0.00,,---,0.00,VWS V14.01,2013-08-30 06:00:00,
2013-08-30 02:30:00,68.3,66.8,29.95,ESE,112,0.0,0.0,95,0.00,,---,0.00,VWS V14.01,2013-08-30 06:30:00,
2013-08-30 03:00:00,67.7,66.5,29.96,ESE,112,0.0,0.0,96,0.00,,---,0.00,VWS V14.01,2013-08-30 07:00:00,
2013-08-30 03:30:00,67.4,66.2,29.95,ESE,112,0.0,0.0,96,0.00,,---,0.00,VWS V14.01,2013-08-30 07:30:00,
2013-08-30 04:00:00,67.2,66.3,29.95,ESE,112,0.0,0.0,97,0.00,,---,0.00,VWS V14.01,2013-08-30 08:00:00,
2013-08-30 04:30:00,66.9,66.0,29.94,ESE,112,0.0,0.0,97,0.00,,---,0.00,VWS V14.01,2013-08-30 08:30:00,
2013-08-30 05:00:00,66.4,65.5,29.94,ESE,111,0.0,0.0,97,0.00,,---,0.00,VWS V14.01,2013-08-30 09:00:00,
2013-08-30 05:30:00,65.8,64.9,29.94,ESE,111,0.0,0.0,97,0.00,,---,0.00,VWS V14.01,2013-08-30 09:30:00,
2013-08-30 06:00:00,65.8,64.9,29.94,ESE,111,0.0,0.0,97,0.00,,---,0.00,VWS V14.01,2013-08-30 10:00:00,
2013-08-30 06:30:00,65.3,64.4,29.93,ESE,111,0.0,0.0,97,0.00,,---,0.00,VWS V14.01,2013-08-30 10:30:00,
2013-08-30 07:00:00,65.4,64.5,29.93,ESE,112,0.0,1.0,97,0.00,,---,0.00,VWS V14.01,2013-08-30 11:00:00,
2013-08-30 07:30:00,65.5,64.9,29.93,ESE,112,0.0,0.0,98,0.00,,---,0.00,VWS V14.01,2013-08-30 11:30:00,
2013-08-30 08:00:00,66.3,65.7,29.93,ESE,111,0.0,0.0,98,0.00,,---,0.00,VWS V14.01,2013-08-30 12:00:00,
2013-08-30 08:30:00,67.6,67.0,29.93,SE,124,0.0,2.0,98,0.00,,---,0.00,VWS V14.01,2013-08-30 12:30:00,
2013-08-30 09:00:00,69.1,68.5,29.93,NW,306,0.0,2.0,98,0.00,,---,0.00,VWS V14.01,2013-08-30 13:00:00,
2013-08-30 09:30:00,72.9,70.4,29.93,WSW,237,0.0,3.0,92,0.00,,---,0.00,VWS V14.01,2013-08-30 13:30:00,
2013-08-30 10:00:00,74.6,71.2,29.92,West,264,0.0,3.0,89,0.00,,---,0.00,VWS V14.01,2013-08-30 14:00:00,
2013-08-30 10:30:00,76.1,71.3,29.91,WNW,288,1.0,4.0,85,0.00,,---,0.00,VWS V14.01,2013-08-30 14:30:00,
2013-08-30 11:00:00,77.5,71.2,29.90,SW,236,2.0,6.0,81,0.00,,---,0.00,VWS V14.01,2013-08-30 15:00:00,
2013-08-30 11:30:00,78.8,71.7,29.90,SW,224,1.0,7.0,79,0.00,,---,0.00,VWS V14.01,2013-08-30 15:30:00,
2013-08-30 12:00:00,79.7,72.2,29.90,SW,222,4.0,8.0,78,0.00,,---,0.00,VWS V14.01,2013-08-30 16:00:00,
2013-08-30 12:30:00,81.4,72.3,29.88,WNW,300,2.0,7.0,74,0.00,,---,0.00,VWS V14.01,2013-08-30 16:30:00,
2013-08-30 13:00:00,83.1,72.7,29.88,WSW,249,4.0,8.0,71,0.00,,---,0.00,VWS V14.01,2013-08-30 17:00:00,
2013-08-30 13:30:00,83.4,72.2,29.87,West,268,3.0,10.0,69,0.00,,---,0.00,VWS V14.01,2013-08-30 17:30:00,
2013-08-30 14:00:00,85.0,72.4,29.86,West,267,2.0,11.0,66,0.00,,---,0.00,VWS V14.01,2013-08-30 18:00:00,
2013-08-30 14:30:00,85.9,72.8,29.85,West,276,4.0,11.0,65,0.00,,---,0.00,VWS V14.01,2013-08-30 18:30:00,
2013-08-30 15:00:00,86.7,72.6,29.85,WNW,285,4.0,8.0,63,0.00,,---,0.00,VWS V14.01,2013-08-30 19:00:00,
2013-08-30 15:30:00,87.7,73.6,29.83,WNW,288,2.0,10.0,63,0.00,,---,0.00,VWS V14.01,2013-08-30 19:30:00,
2013-08-30 16:00:00,89.4,73.2,29.82,ESE,110,1.0,11.0,59,0.00,,---,0.00,VWS V14.01,2013-08-30 20:00:00,
2013-08-30 16:30:00,90.0,73.8,29.80,ESE,121,1.0,7.0,59,0.00,,---,0.00,VWS V14.01,2013-08-30 20:30:00,
2013-08-30 17:00:00,90.8,75.5,29.79,WNW,284,1.0,6.0,61,0.00,,---,0.00,VWS V14.01,2013-08-30 21:00:00,
2013-08-30 17:30:00,90.6,75.8,29.79,WSW,257,4.0,7.0,62,0.00,,---,0.00,VWS V14.01,2013-08-30 21:30:00,
2013-08-30 18:00:00,91.5,75.2,29.77,SW,217,1.0,5.0,59,0.00,,---,0.00,VWS V14.01,2013-08-30 22:00:00,
2013-08-30 18:30:00,92.2,75.8,29.76,WNW,284,1.0,10.0,59,0.00,,---,0.00,VWS V14.01,2013-08-30 22:30:00,
2013-08-30 19:00:00,91.0,74.7,29.77,SW,236,1.0,5.0,59,0.00,,---,0.00,VWS V14.01,2013-08-30 23:00:00,
2013-08-30 19:30:00,89.0,75.2,29.75,East,86,0.0,4.0,64,0.00,,---,0.00,VWS V14.01,2013-08-30 23:30:00,
2013-08-30 20:00:00,84.0,74.0,29.75,WSW,253,0.0,2.0,72,0.00,,---,0.00,VWS V14.01,2013-08-31 00:00:00,
2013-08-30 20:30:00,82.1,74.2,29.76,West,271,0.0,3.0,77,0.00,,---,0.00,VWS V14.01,2013-08-31 00:30:00,
2013-08-30 21:00:00,80.6,74.2,29.76,West,270,0.0,1.0,81,0.00,,---,0.00,VWS V14.01,2013-08-31 01:00:00,
2013-08-30 21:30:00,80.5,73.8,29.77,SE,145,1.0,1.0,80,0.00,,---,0.00,VWS V14.01,2013-08-31 01:30:00,
2013-08-30 22:00:00,81.2,74.4,29.75,West,271,2.0,4.0,80,0.00,,---,0.00,VWS V14.01,2013-08-31 02:00:00,
2013-08-30 22:30:00,82.7,74.4,29.72,West,259,5.0,16.0,76,0.00,,---,0.00,VWS V14.01,2013-08-31 02:30:00,
2013-08-30 23:00:00,81.4,69.0,29.72,NNW,343,4.0,18.0,66,0.00,,---,0.00,VWS V14.01,2013-08-31 03:00:00,
2013-08-30 23:30:00,80.5,72.2,29.70,NE,34,8.0,18.0,76,0.00,,---,0.00,VWS V14.01,2013-08-31 03:30:00,